sensor_id;sensor_type;location;lat;lon;timestamp;pressure;altitude;pressure_sealevel;temperature;humidity
77003;BME280;65939;50.060;14.288;2023-08-12T00:00:26;97742.25;;;19.20;76.13
77003;BME280;65939;50.060;14.288;2023-08-12T00:02:27;97746.97;;;19.18;76.49
77003;BME280;65939;50.060;14.288;2023-08-12T00:04:27;97746.31;;;19.16;76.18
77003;BME280;65939;50.060;14.288;2023-08-12T00:06:28;97742.25;;;19.13;75.87
77003;BME280;65939;50.060;14.288;2023-08-12T00:08:29;97742.44;;;19.11;76.46
77003;BME280;65939;50.060;14.288;2023-08-12T00:10:29;97743.66;;;19.09;75.45
77003;BME280;65939;50.060;14.288;2023-08-12T00:12:32;97744.69;;;19.08;76.11
77003;BME280;65939;50.060;14.288;2023-08-12T00:14:33;97744.03;;;19.06;75.94
77003;BME280;65939;50.060;14.288;2023-08-12T00:16:34;97740.78;;;19.04;75.96
77003;BME280;65939;50.060;14.288;2023-08-12T00:18:34;97742.81;;;19.02;76.20
77003;BME280;65939;50.060;14.288;2023-08-12T00:20:37;97749.13;;;19.01;75.90
77003;BME280;65939;50.060;14.288;2023-08-12T00:22:38;97743.41;;;18.97;76.16
77003;BME280;65939;50.060;14.288;2023-08-12T00:24:39;97746.25;;;18.96;76.95
77003;BME280;65939;50.060;14.288;2023-08-12T00:26:40;97738.50;;;18.94;76.43
77003;BME280;65939;50.060;14.288;2023-08-12T00:28:41;97739.72;;;18.92;76.98
77003;BME280;65939;50.060;14.288;2023-08-12T00:30:42;97746.03;;;18.90;77.13
77003;BME280;65939;50.060;14.288;2023-08-12T00:32:42;97743.59;;;18.89;77.55
77003;BME280;65939;50.060;14.288;2023-08-12T00:34:43;97741.13;;;18.87;77.20
77003;BME280;65939;50.060;14.288;2023-08-12T00:36:44;97742.16;;;18.86;77.22
77003;BME280;65939;50.060;14.288;2023-08-12T00:38:44;97741.34;;;18.86;77.54
77003;BME280;65939;50.060;14.288;2023-08-12T00:40:45;97744.78;;;18.86;77.38
77003;BME280;65939;50.060;14.288;2023-08-12T00:42:45;97741.53;;;18.84;77.30
77003;BME280;65939;50.060;14.288;2023-08-12T00:44:47;97743.56;;;18.82;77.20
77003;BME280;65939;50.060;14.288;2023-08-12T00:46:48;97741.72;;;18.83;77.45
77003;BME280;65939;50.060;14.288;2023-08-12T00:48:50;97742.72;;;18.82;77.53
77003;BME280;65939;50.060;14.288;2023-08-12T00:50:51;97732.34;;;18.80;78.10
77003;BME280;65939;50.060;14.288;2023-08-12T00:52:52;97719.13;;;18.80;77.73
77003;BME280;65939;50.060;14.288;2023-08-12T00:54:53;97717.50;;;18.79;78.03
77003;BME280;65939;50.060;14.288;2023-08-12T00:56:55;97713.81;;;18.80;77.59
77003;BME280;65939;50.060;14.288;2023-08-12T00:58:56;97713.00;;;18.80;77.89
77003;BME280;65939;50.060;14.288;2023-08-12T01:00:57;97711.41;;;18.79;78.02
77003;BME280;65939;50.060;14.288;2023-08-12T01:02:57;97716.06;;;18.77;78.36
77003;BME280;65939;50.060;14.288;2023-08-12T01:04:58;97706.66;;;18.74;78.23
77003;BME280;65939;50.060;14.288;2023-08-12T01:06:59;97708.50;;;18.74;78.43
77003;BME280;65939;50.060;14.288;2023-08-12T01:09:01;97711.50;;;18.71;77.85
77003;BME280;65939;50.060;14.288;2023-08-12T01:11:48;97714.16;;;18.71;78.08
77003;BME280;65939;50.060;14.288;2023-08-12T01:14:05;97713.56;;;18.69;78.34
77003;BME280;65939;50.060;14.288;2023-08-12T01:16:08;97712.91;;;18.66;78.52
77003;BME280;65939;50.060;14.288;2023-08-12T01:18:11;97717.59;;;18.64;78.13
77003;BME280;65939;50.060;14.288;2023-08-12T01:20:13;97715.34;;;18.61;78.70
77003;BME280;65939;50.060;14.288;2023-08-12T01:22:16;97712.72;;;18.61;78.54
77003;BME280;65939;50.060;14.288;2023-08-12T01:24:21;97706.78;;;18.59;78.64
77003;BME280;65939;50.060;14.288;2023-08-12T01:26:21;97714.13;;;18.57;78.44
77003;BME280;65939;50.060;14.288;2023-08-12T01:28:22;97716.13;;;18.55;78.79
77003;BME280;65939;50.060;14.288;2023-08-12T01:30:23;97715.50;;;18.53;78.70
77003;BME280;65939;50.060;14.288;2023-08-12T01:32:49;97714.88;;;18.51;78.65
77003;BME280;65939;50.060;14.288;2023-08-12T01:35:06;97721.38;;;18.49;78.54
77003;BME280;65939;50.060;14.288;2023-08-12T01:37:12;97715.66;;;18.45;79.06
77003;BME280;65939;50.060;14.288;2023-08-12T01:39:14;97712.41;;;18.43;79.29
77003;BME280;65939;50.060;14.288;2023-08-12T01:41:19;97717.06;;;18.41;79.86
77003;BME280;65939;50.060;14.288;2023-08-12T01:43:21;97722.75;;;18.38;79.91
77003;BME280;65939;50.060;14.288;2023-08-12T01:45:23;97718.47;;;18.37;79.93
77003;BME280;65939;50.060;14.288;2023-08-12T01:47:23;97719.50;;;18.36;80.20
77003;BME280;65939;50.060;14.288;2023-08-12T01:49:24;97715.19;;;18.35;80.37
77003;BME280;65939;50.060;14.288;2023-08-12T01:51:25;97716.22;;;18.34;80.42
77003;BME280;65939;50.060;14.288;2023-08-12T01:53:25;97710.28;;;18.32;80.04
77003;BME280;65939;50.060;14.288;2023-08-12T01:55:26;97705.22;;;18.30;80.24
77003;BME280;65939;50.060;14.288;2023-08-12T01:57:27;97707.22;;;18.28;80.52
77003;BME280;65939;50.060;14.288;2023-08-12T01:59:27;97705.81;;;18.26;80.50
77003;BME280;65939;50.060;14.288;2023-08-12T02:01:28;97708.63;;;18.24;79.82
77003;BME280;65939;50.060;14.288;2023-08-12T02:03:29;97707.81;;;18.24;80.38
77003;BME280;65939;50.060;14.288;2023-08-12T02:05:29;97713.31;;;18.22;81.11
77003;BME280;65939;50.060;14.288;2023-08-12T02:07:30;97709.84;;;18.22;81.06
77003;BME280;65939;50.060;14.288;2023-08-12T02:09:31;97704.72;;;18.20;80.92
77003;BME280;65939;50.060;14.288;2023-08-12T02:11:32;97702.91;;;18.21;80.98
77003;BME280;65939;50.060;14.288;2023-08-12T02:13:32;97700.25;;;18.21;80.85
77003;BME280;65939;50.060;14.288;2023-08-12T02:15:33;97697.63;;;18.21;81.17
77003;BME280;65939;50.060;14.288;2023-08-12T02:17:34;97699.28;;;18.22;81.34
77003;BME280;65939;50.060;14.288;2023-08-12T02:19:35;97695.59;;;18.23;81.90
77003;BME280;65939;50.060;14.288;2023-08-12T02:21:35;97699.28;;;18.22;81.84
77003;BME280;65939;50.060;14.288;2023-08-12T02:23:36;97694.97;;;18.21;81.85
77003;BME280;65939;50.060;14.288;2023-08-12T02:25:37;97690.72;;;18.19;81.85
77003;BME280;65939;50.060;14.288;2023-08-12T02:27:37;97691.09;;;18.16;81.77
77003;BME280;65939;50.060;14.288;2023-08-12T02:29:38;97687.63;;;18.16;81.53
77003;BME280;65939;50.060;14.288;2023-08-12T02:31:38;97689.66;;;18.14;81.55
77003;BME280;65939;50.060;14.288;2023-08-12T02:33:39;97689.84;;;18.12;81.33
77003;BME280;65939;50.060;14.288;2023-08-12T02:35:40;97691.84;;;18.10;81.40
77003;BME280;65939;50.060;14.288;2023-08-12T02:37:40;97693.91;;;18.08;81.83
77003;BME280;65939;50.060;14.288;2023-08-12T02:39:41;97691.44;;;18.07;81.74
77003;BME280;65939;50.060;14.288;2023-08-12T02:41:42;97689.00;;;18.05;82.53
77003;BME280;65939;50.060;14.288;2023-08-12T02:43:42;97696.28;;;18.03;81.49
77003;BME280;65939;50.060;14.288;2023-08-12T02:45:43;97691.41;;;18.00;81.47
77003;BME280;65939;50.060;14.288;2023-08-12T02:47:44;97688.94;;;17.99;81.58
77003;BME280;65939;50.060;14.288;2023-08-12T02:49:45;97695.41;;;17.96;81.69
77003;BME280;65939;50.060;14.288;2023-08-12T02:51:45;97690.53;;;17.93;81.61
77003;BME280;65939;50.060;14.288;2023-08-12T02:53:46;97692.56;;;17.91;82.06
77003;BME280;65939;50.060;14.288;2023-08-12T02:55:47;97685.81;;;17.88;82.75
77003;BME280;65939;50.060;14.288;2023-08-12T02:57:47;97686.84;;;17.87;82.12
77003;BME280;65939;50.060;14.288;2023-08-12T02:59:48;97698.59;;;17.85;83.15
77003;BME280;65939;50.060;14.288;2023-08-12T03:01:49;97698.16;;;17.81;83.06
77003;BME280;65939;50.060;14.288;2023-08-12T03:03:49;97693.25;;;17.78;83.23
77003;BME280;65939;50.060;14.288;2023-08-12T03:05:50;97702.19;;;17.77;83.54
77003;BME280;65939;50.060;14.288;2023-08-12T03:07:50;97695.63;;;17.73;83.91
77003;BME280;65939;50.060;14.288;2023-08-12T03:09:54;97694.38;;;17.69;84.13
77003;BME280;65939;50.060;14.288;2023-08-12T03:11:55;97700.41;;;17.63;84.22
77003;BME280;65939;50.060;14.288;2023-08-12T03:13:55;97701.81;;;17.59;83.68
77003;BME280;65939;50.060;14.288;2023-08-12T03:15:56;97697.09;;;17.54;83.15
77003;BME280;65939;50.060;14.288;2023-08-12T03:17:57;97701.09;;;17.50;84.48
77003;BME280;65939;50.060;14.288;2023-08-12T03:19:58;97699.84;;;17.46;84.86
77003;BME280;65939;50.060;14.288;2023-08-12T03:22:03;97695.78;;;17.43;83.99
77003;BME280;65939;50.060;14.288;2023-08-12T03:24:04;97693.31;;;17.42;84.95
77003;BME280;65939;50.060;14.288;2023-08-12T03:26:05;97696.16;;;17.40;85.11
77003;BME280;65939;50.060;14.288;2023-08-12T03:28:05;97698.16;;;17.38;84.64
77003;BME280;65939;50.060;14.288;2023-08-12T03:30:06;97690.25;;;17.38;85.07
77003;BME280;65939;50.060;14.288;2023-08-12T03:32:07;97692.06;;;17.38;85.26
77003;BME280;65939;50.060;14.288;2023-08-12T03:34:08;97694.06;;;17.36;85.35
77003;BME280;65939;50.060;14.288;2023-08-12T03:36:09;97691.25;;;17.37;85.32
77003;BME280;65939;50.060;14.288;2023-08-12T03:38:09;97687.16;;;17.35;85.53
77003;BME280;65939;50.060;14.288;2023-08-12T03:40:10;97690.81;;;17.34;85.37
77003;BME280;65939;50.060;14.288;2023-08-12T03:42:11;97692.44;;;17.35;85.60
77003;BME280;65939;50.060;14.288;2023-08-12T03:44:12;97692.44;;;17.35;84.87
77003;BME280;65939;50.060;14.288;2023-08-12T03:46:12;97695.91;;;17.35;84.87
77003;BME280;65939;50.060;14.288;2023-08-12T03:48:13;97691.44;;;17.36;85.12
77003;BME280;65939;50.060;14.288;2023-08-12T03:50:14;97681.06;;;17.34;85.18
77003;BME280;65939;50.060;14.288;2023-08-12T03:52:14;97687.16;;;17.35;84.06
77003;BME280;65939;50.060;14.288;2023-08-12T03:54:15;97677.63;;;17.34;84.33
77003;BME280;65939;50.060;14.288;2023-08-12T03:56:17;97678.63;;;17.33;85.05
77003;BME280;65939;50.060;14.288;2023-08-12T03:58:18;97684.91;;;17.32;84.18
77003;BME280;65939;50.060;14.288;2023-08-12T04:00:18;97690.38;;;17.30;85.13
77003;BME280;65939;50.060;14.288;2023-08-12T04:02:19;97687.91;;;17.29;85.01
77003;BME280;65939;50.060;14.288;2023-08-12T04:04:20;97689.94;;;17.27;85.34
77003;BME280;65939;50.060;14.288;2023-08-12T04:06:20;97689.13;;;17.26;84.82
77003;BME280;65939;50.060;14.288;2023-08-12T04:08:23;97683.03;;;17.26;84.45
77003;BME280;65939;50.060;14.288;2023-08-12T04:10:23;97683.03;;;17.26;85.18
77003;BME280;65939;50.060;14.288;2023-08-12T04:12:25;97683.03;;;17.26;86.53
77003;BME280;65939;50.060;14.288;2023-08-12T04:14:25;97680.41;;;17.26;85.69
77003;BME280;65939;50.060;14.288;2023-08-12T04:16:26;97677.75;;;17.26;86.19
77003;BME280;65939;50.060;14.288;2023-08-12T04:18:26;97679.38;;;17.27;85.48
77003;BME280;65939;50.060;14.288;2023-08-12T04:20:27;97681.00;;;17.28;87.29
77003;BME280;65939;50.060;14.288;2023-08-12T04:22:28;97687.91;;;17.29;86.58
77003;BME280;65939;50.060;14.288;2023-08-12T04:24:28;97687.91;;;17.29;87.13
77003;BME280;65939;50.060;14.288;2023-08-12T04:26:29;97683.47;;;17.29;86.33
77003;BME280;65939;50.060;14.288;2023-08-12T04:28:30;97684.09;;;17.31;86.61
77003;BME280;65939;50.060;14.288;2023-08-12T04:30:30;97683.06;;;17.32;86.57
77003;BME280;65939;50.060;14.288;2023-08-12T04:32:31;97681.88;;;17.35;86.70
77003;BME280;65939;50.060;14.288;2023-08-12T04:34:32;97679.88;;;17.37;87.01
77003;BME280;65939;50.060;14.288;2023-08-12T04:36:32;97678.88;;;17.38;86.46
77003;BME280;65939;50.060;14.288;2023-08-12T04:38:33;97680.31;;;17.40;86.63
77003;BME280;65939;50.060;14.288;2023-08-12T04:40:34;97674.03;;;17.41;86.66
77003;BME280;65939;50.060;14.288;2023-08-12T04:42:34;97675.28;;;17.45;86.43
77003;BME280;65939;50.060;14.288;2023-08-12T04:44:35;97674.28;;;17.46;86.72
77003;BME280;65939;50.060;14.288;2023-08-12T04:46:36;97676.75;;;17.48;86.31
77003;BME280;65939;50.060;14.288;2023-08-12T04:48:37;97676.16;;;17.53;86.29
77003;BME280;65939;50.060;14.288;2023-08-12T04:50:37;97671.31;;;17.56;86.19
77003;BME280;65939;50.060;14.288;2023-08-12T04:52:38;97668.72;;;17.63;86.30
77003;BME280;65939;50.060;14.288;2023-08-12T04:54:39;97671.59;;;17.68;86.50
77003;BME280;65939;50.060;14.288;2023-08-12T04:56:40;97662.91;;;17.74;86.50
77003;BME280;65939;50.060;14.288;2023-08-12T04:58:40;97665.47;;;17.82;86.41
77003;BME280;65939;50.060;14.288;2023-08-12T05:00:42;97669.78;;;17.90;86.23
77003;BME280;65939;50.060;14.288;2023-08-12T05:02:43;97676.94;;;17.96;85.61
77003;BME280;65939;50.060;14.288;2023-08-12T05:04:48;97671.69;;;18.03;85.76
77003;BME280;65939;50.060;14.288;2023-08-12T05:06:49;97676.41;;;18.07;85.39
77003;BME280;65939;50.060;14.288;2023-08-12T05:08:50;97682.56;;;18.14;85.27
77003;BME280;65939;50.060;14.288;2023-08-12T05:10:50;97679.13;;;18.21;85.42
77003;BME280;65939;50.060;14.288;2023-08-12T05:12:51;97684.28;;;18.29;85.38
77003;BME280;65939;50.060;14.288;2023-08-12T05:14:54;97680.81;;;18.35;84.45
77003;BME280;65939;50.060;14.288;2023-08-12T05:16:55;97678.22;;;18.41;84.47
77003;BME280;65939;50.060;14.288;2023-08-12T05:18:55;97683.34;;;18.50;84.10
77003;BME280;65939;50.060;14.288;2023-08-12T05:20:56;97679.91;;;18.56;84.18
77003;BME280;65939;50.060;14.288;2023-08-12T05:22:58;97681.56;;;18.63;84.40
77003;BME280;65939;50.060;14.288;2023-08-12T05:24:58;97669.19;;;18.71;83.48
77003;BME280;65939;50.060;14.288;2023-08-12T05:26:59;97667.63;;;18.76;83.03
77003;BME280;65939;50.060;14.288;2023-08-12T05:29:00;97666.84;;;18.82;82.93
77003;BME280;65939;50.060;14.288;2023-08-12T05:31:00;97671.94;;;18.90;82.53
77003;BME280;65939;50.060;14.288;2023-08-12T05:33:01;97665.06;;;18.96;82.55
77003;BME280;65939;50.060;14.288;2023-08-12T05:35:03;97664.22;;;19.02;82.37
77003;BME280;65939;50.060;14.288;2023-08-12T05:37:04;97666.72;;;19.10;82.36
77003;BME280;65939;50.060;14.288;2023-08-12T05:39:05;97663.25;;;19.17;81.74
77003;BME280;65939;50.060;14.288;2023-08-12T05:41:06;97671.81;;;19.25;82.39
77003;BME280;65939;50.060;14.288;2023-08-12T05:43:07;97662.88;;;19.33;81.63
77003;BME280;65939;50.060;14.288;2023-08-12T05:45:08;97662.06;;;19.39;81.06
77003;BME280;65939;50.060;14.288;2023-08-12T05:47:09;97669.81;;;19.47;80.57
77003;BME280;65939;50.060;14.288;2023-08-12T05:49:10;97672.88;;;19.57;80.78
77003;BME280;65939;50.060;14.288;2023-08-12T05:51:10;97669.03;;;19.67;80.41
77003;BME280;65939;50.060;14.288;2023-08-12T05:53:11;97669.84;;;19.74;80.50
77003;BME280;65939;50.060;14.288;2023-08-12T05:55:12;97667.19;;;19.80;80.03
77003;BME280;65939;50.060;14.288;2023-08-12T05:57:12;97664.13;;;19.90;80.33
77003;BME280;65939;50.060;14.288;2023-08-12T05:59:13;97668.38;;;19.98;80.13
77003;BME280;65939;50.060;14.288;2023-08-12T06:01:14;97669.00;;;20.06;79.43
77003;BME280;65939;50.060;14.288;2023-08-12T06:03:14;97670.00;;;20.12;79.68
77003;BME280;65939;50.060;14.288;2023-08-12T06:05:15;97666.31;;;20.20;79.16
77003;BME280;65939;50.060;14.288;2023-08-12T06:07:16;97666.09;;;20.28;79.36
77003;BME280;65939;50.060;14.288;2023-08-12T06:09:16;97668.72;;;20.34;79.49
77003;BME280;65939;50.060;14.288;2023-08-12T06:11:17;97665.22;;;20.41;79.05
77003;BME280;65939;50.060;14.288;2023-08-12T06:13:18;97662.78;;;20.46;78.31
77003;BME280;65939;50.060;14.288;2023-08-12T06:15:18;97666.69;;;20.50;78.23
77003;BME280;65939;50.060;14.288;2023-08-12T06:17:19;97672.38;;;20.53;78.13
77003;BME280;65939;50.060;14.288;2023-08-12T06:19:20;97662.56;;;20.61;78.01
77003;BME280;65939;50.060;14.288;2023-08-12T06:21:20;97657.00;;;20.69;78.37
77003;BME280;65939;50.060;14.288;2023-08-12T06:23:21;97660.03;;;20.79;78.26
77003;BME280;65939;50.060;14.288;2023-08-12T06:25:22;97657.91;;;20.88;78.15
77003;BME280;65939;50.060;14.288;2023-08-12T06:27:22;97663.19;;;20.94;77.84
77003;BME280;65939;50.060;14.288;2023-08-12T06:29:23;97658.47;;;21.03;77.49
77003;BME280;65939;50.060;14.288;2023-08-12T06:31:23;97665.13;;;21.12;77.67
77003;BME280;65939;50.060;14.288;2023-08-12T06:33:24;97670.59;;;21.24;77.04
77003;BME280;65939;50.060;14.288;2023-08-12T06:35:25;97665.44;;;21.36;77.14
77003;BME280;65939;50.060;14.288;2023-08-12T06:37:26;97664.50;;;21.48;77.24
77003;BME280;65939;50.060;14.288;2023-08-12T06:39:26;97661.75;;;21.62;77.19
77003;BME280;65939;50.060;14.288;2023-08-12T06:41:27;97663.06;;;21.78;76.57
77003;BME280;65939;50.060;14.288;2023-08-12T06:43:28;97658.88;;;21.88;76.20
77003;BME280;65939;50.060;14.288;2023-08-12T06:45:29;97661.63;;;22.00;76.11
77003;BME280;65939;50.060;14.288;2023-08-12T06:47:29;97652.13;;;22.11;76.10
77003;BME280;65939;50.060;14.288;2023-08-12T06:49:30;97656.97;;;22.20;75.70
77003;BME280;65939;50.060;14.288;2023-08-12T06:51:31;97661.56;;;22.32;75.33
77003;BME280;65939;50.060;14.288;2023-08-12T06:53:31;97663.47;;;22.43;75.12
77003;BME280;65939;50.060;14.288;2023-08-12T06:55:32;97660.88;;;22.55;74.92
77003;BME280;65939;50.060;14.288;2023-08-12T06:57:32;97657.44;;;22.66;74.29
77003;BME280;65939;50.060;14.288;2023-08-12T06:59:33;97652.78;;;22.80;74.31
77003;BME280;65939;50.060;14.288;2023-08-12T07:01:34;97655.50;;;22.91;73.46
77003;BME280;65939;50.060;14.288;2023-08-12T07:03:35;97654.16;;;23.01;73.36
77003;BME280;65939;50.060;14.288;2023-08-12T07:05:36;97655.03;;;23.13;73.17
77003;BME280;65939;50.060;14.288;2023-08-12T07:07:37;97651.81;;;23.23;72.84
77003;BME280;65939;50.060;14.288;2023-08-12T07:09:38;97648.03;;;23.30;72.46
77003;BME280;65939;50.060;14.288;2023-08-12T07:11:39;97644.78;;;23.40;72.86
77003;BME280;65939;50.060;14.288;2023-08-12T07:13:40;97646.88;;;23.50;71.72
77003;BME280;65939;50.060;14.288;2023-08-12T07:15:42;97647.13;;;23.60;72.36
77003;BME280;65939;50.060;14.288;2023-08-12T07:17:42;97643.94;;;23.70;71.35
77003;BME280;65939;50.060;14.288;2023-08-12T07:19:43;97648.69;;;23.79;71.51
77003;BME280;65939;50.060;14.288;2023-08-12T07:21:43;97648.34;;;23.87;71.04
77003;BME280;65939;50.060;14.288;2023-08-12T07:23:44;97646.72;;;23.98;70.50
77003;BME280;65939;50.060;14.288;2023-08-12T07:25:47;97639.75;;;24.09;70.62
77003;BME280;65939;50.060;14.288;2023-08-12T07:27:48;97641.59;;;24.20;71.15
77003;BME280;65939;50.060;14.288;2023-08-12T07:29:48;97642.63;;;24.31;70.12
77003;BME280;65939;50.060;14.288;2023-08-12T07:31:49;97646.56;;;24.40;70.14
77003;BME280;65939;50.060;14.288;2023-08-12T07:33:50;97641.44;;;24.50;69.34
77003;BME280;65939;50.060;14.288;2023-08-12T07:35:51;97648.84;;;24.60;69.60
77003;BME280;65939;50.060;14.288;2023-08-12T07:37:51;97650.34;;;24.68;69.79
77003;BME280;65939;50.060;14.288;2023-08-12T07:39:52;97642.53;;;24.78;68.94
77003;BME280;65939;50.060;14.288;2023-08-12T07:41:53;97641.34;;;24.85;69.01
77003;BME280;65939;50.060;14.288;2023-08-12T07:43:53;97641.78;;;24.94;68.82
77003;BME280;65939;50.060;14.288;2023-08-12T07:45:54;97636.50;;;24.99;68.36
77003;BME280;65939;50.060;14.288;2023-08-12T07:47:55;97634.97;;;25.03;68.91
77003;BME280;65939;50.060;14.288;2023-08-12T07:49:55;97630.56;;;25.09;68.47
77003;BME280;65939;50.060;14.288;2023-08-12T07:51:56;97627.97;;;25.14;68.43
77003;BME280;65939;50.060;14.288;2023-08-12T07:53:57;97634.56;;;25.23;69.22
77003;BME280;65939;50.060;14.288;2023-08-12T07:55:57;97631.28;;;25.33;68.17
77003;BME280;65939;50.060;14.288;2023-08-12T07:57:58;97623.91;;;25.40;67.61
77003;BME280;65939;50.060;14.288;2023-08-12T07:59:59;97630.13;;;25.46;67.47
77003;BME280;65939;50.060;14.288;2023-08-12T08:01:59;97624.03;;;25.50;66.92
77003;BME280;65939;50.060;14.288;2023-08-12T08:04:00;97629.47;;;25.55;66.57
77003;BME280;65939;50.060;14.288;2023-08-12T08:06:01;97626.88;;;25.61;66.32
77003;BME280;65939;50.060;14.288;2023-08-12T08:08:02;97623.22;;;25.67;66.24
77003;BME280;65939;50.060;14.288;2023-08-12T08:10:03;97621.94;;;25.69;65.54
77003;BME280;65939;50.060;14.288;2023-08-12T08:12:05;97619.59;;;25.73;65.98
77003;BME280;65939;50.060;14.288;2023-08-12T08:14:07;97614.91;;;25.80;66.21
77003;BME280;65939;50.060;14.288;2023-08-12T08:16:08;97623.31;;;25.89;65.31
77003;BME280;65939;50.060;14.288;2023-08-12T08:18:08;97615.94;;;25.96;64.08
77003;BME280;65939;50.060;14.288;2023-08-12T08:20:09;97610.66;;;26.01;63.52
77003;BME280;65939;50.060;14.288;2023-08-12T08:22:11;97616.66;;;26.08;64.11
77003;BME280;65939;50.060;14.288;2023-08-12T08:24:11;97609.00;;;26.17;63.37
77003;BME280;65939;50.060;14.288;2023-08-12T08:26:13;97612.59;;;26.27;63.76
77003;BME280;65939;50.060;14.288;2023-08-12T08:28:16;97607.88;;;26.35;62.56
77003;BME280;65939;50.060;14.288;2023-08-12T08:30:16;97606.09;;;26.40;62.35
77003;BME280;65939;50.060;14.288;2023-08-12T08:32:17;97610.69;;;26.45;61.80
77003;BME280;65939;50.060;14.288;2023-08-12T08:34:17;97605.66;;;26.48;61.57
77003;BME280;65939;50.060;14.288;2023-08-12T08:36:18;97611.31;;;26.52;62.00
77003;BME280;65939;50.060;14.288;2023-08-12T08:38:19;97609.84;;;26.61;62.07
77003;BME280;65939;50.060;14.288;2023-08-12T08:40:20;97606.72;;;26.69;61.74
77003;BME280;65939;50.060;14.288;2023-08-12T08:42:21;97607.31;;;26.77;61.41
77003;BME280;65939;50.060;14.288;2023-08-12T08:44:22;97606.06;;;26.84;62.53
77003;BME280;65939;50.060;14.288;2023-08-12T08:46:27;97602.59;;;26.89;61.37
77003;BME280;65939;50.060;14.288;2023-08-12T08:48:27;97605.88;;;26.96;61.18
77003;BME280;65939;50.060;14.288;2023-08-12T08:50:30;97601.41;;;27.02;60.48
77003;BME280;65939;50.060;14.288;2023-08-12T08:52:31;97599.31;;;27.09;60.20
77003;BME280;65939;50.060;14.288;2023-08-12T08:54:34;97600.25;;;27.19;59.98
77003;BME280;65939;50.060;14.288;2023-08-12T08:56:34;97603.03;;;27.30;61.82
77003;BME280;65939;50.060;14.288;2023-08-12T08:58:35;97600.44;;;27.40;59.89
77003;BME280;65939;50.060;14.288;2023-08-12T09:00:38;97601.56;;;27.49;60.15
77003;BME280;65939;50.060;14.288;2023-08-12T09:02:41;97597.34;;;27.58;59.72
77003;BME280;65939;50.060;14.288;2023-08-12T09:04:46;97606.81;;;27.71;59.85
77003;BME280;65939;50.060;14.288;2023-08-12T09:06:47;97608.78;;;27.81;58.68
77003;BME280;65939;50.060;14.288;2023-08-12T09:08:51;97607.25;;;27.90;58.62
77003;BME280;65939;50.060;14.288;2023-08-12T09:10:55;97608.34;;;27.94;58.12
77003;BME280;65939;50.060;14.288;2023-08-12T09:12:57;97603.50;;;27.96;57.69
77003;BME280;65939;50.060;14.288;2023-08-12T09:14:57;97594.41;;;27.97;57.65
77003;BME280;65939;50.060;14.288;2023-08-12T09:17:00;97602.19;;;27.99;58.30
77003;BME280;65939;50.060;14.288;2023-08-12T09:19:00;97594.97;;;28.04;58.10
77003;BME280;65939;50.060;14.288;2023-08-12T09:21:02;97600.63;;;28.08;56.93
77003;BME280;65939;50.060;14.288;2023-08-12T09:23:03;97599.03;;;28.12;57.66
77003;BME280;65939;50.060;14.288;2023-08-12T09:25:04;97596.94;;;28.19;57.64
77003;BME280;65939;50.060;14.288;2023-08-12T09:27:05;97599.09;;;28.27;57.84
77003;BME280;65939;50.060;14.288;2023-08-12T09:29:06;97593.25;;;28.35;56.20
77003;BME280;65939;50.060;14.288;2023-08-12T09:31:06;97586.59;;;28.43;55.70
77003;BME280;65939;50.060;14.288;2023-08-12T09:33:08;97587.94;;;28.51;56.49
77003;BME280;65939;50.060;14.288;2023-08-12T09:35:16;97581.78;;;28.55;54.74
77003;BME280;65939;50.060;14.288;2023-08-12T09:37:21;97575.06;;;28.58;54.66
77003;BME280;65939;50.060;14.288;2023-08-12T09:39:24;97571.59;;;28.62;55.16
77003;BME280;65939;50.060;14.288;2023-08-12T09:41:27;97565.97;;;28.69;53.99
77003;BME280;65939;50.060;14.288;2023-08-12T09:43:28;97569.72;;;28.73;54.39
77003;BME280;65939;50.060;14.288;2023-08-12T09:45:31;97564.63;;;28.77;54.19
77003;BME280;65939;50.060;14.288;2023-08-12T09:47:33;97565.97;;;28.84;53.49
77003;BME280;65939;50.060;14.288;2023-08-12T09:49:35;97558.22;;;28.93;53.15
77003;BME280;65939;50.060;14.288;2023-08-12T09:51:36;97552.88;;;29.03;52.90
77003;BME280;65939;50.060;14.288;2023-08-12T09:53:37;97554.22;;;29.11;52.88
77003;BME280;65939;50.060;14.288;2023-08-12T09:55:38;97560.94;;;29.19;53.04
77003;BME280;65939;50.060;14.288;2023-08-12T09:57:42;97556.63;;;29.23;52.87
77003;BME280;65939;50.060;14.288;2023-08-12T09:59:47;97558.25;;;29.29;52.31
77003;BME280;65939;50.060;14.288;2023-08-12T10:01:49;97547.22;;;29.35;52.21
77003;BME280;65939;50.060;14.288;2023-08-12T10:03:54;97552.03;;;29.44;52.20
77003;BME280;65939;50.060;14.288;2023-08-12T10:05:55;97545.59;;;29.50;51.86
77003;BME280;65939;50.060;14.288;2023-08-12T10:07:56;97549.06;;;29.55;52.34
77003;BME280;65939;50.060;14.288;2023-08-12T10:09:58;97541.81;;;29.61;51.80
77003;BME280;65939;50.060;14.288;2023-08-12T10:11:59;97538.84;;;29.68;52.10
77003;BME280;65939;50.060;14.288;2023-08-12T10:14:00;97546.66;;;29.74;51.81
77003;BME280;65939;50.060;14.288;2023-08-12T10:16:01;97529.13;;;29.82;52.74
77003;BME280;65939;50.060;14.288;2023-08-12T10:18:05;97537.97;;;29.88;52.96
77003;BME280;65939;50.060;14.288;2023-08-12T10:20:08;97536.09;;;29.93;52.91
77003;BME280;65939;50.060;14.288;2023-08-12T10:22:10;97536.59;;;30.00;52.66
77003;BME280;65939;50.060;14.288;2023-08-12T10:24:11;97535.22;;;30.08;53.14
77003;BME280;65939;50.060;14.288;2023-08-12T10:26:14;97531.69;;;30.13;52.70
77003;BME280;65939;50.060;14.288;2023-08-12T10:28:18;97530.91;;;30.17;52.36
77003;BME280;65939;50.060;14.288;2023-08-12T10:30:20;97523.88;;;30.21;51.70
77003;BME280;65939;50.060;14.288;2023-08-12T10:32:21;97527.63;;;30.25;51.33
77003;BME280;65939;50.060;14.288;2023-08-12T10:34:24;97527.09;;;30.28;51.40